Hovedside
METAR-TAF:

METAR-TAF

Lufthavner :

São Tomé internasjonale lufthavn

São Tomé, São Tomé og Príncipe

breddegrad: 00-23N, lengdegrad: 006-43E, høyde over havet: 8 m

Gjeldene værobservasjon

Denne rapporten ble laget for 42 minutter siden, klokken 22:00 UTC
Vind 8 kt fra Sør
Temperatur 25°C
Luftfuktighet 83%
Trykk 1012 hPa
Sikt 10 km eller mer
Få skyer i en høyde av 2000 ft
Brutte skyer i en høyde av 4000 ft

METAR: FPST 252200Z 17008KT 9999 FEW020 BKN040 25/22 Q1012 NOSIG

Tid: 22:42 (22:42 UTC)

Varsel

Denne rapporten ble laget for 42 minutter siden, klokken 22:00 UTC
Varsel gyldig fra 24. klokken 00 UTC til 25. klokken 06 UTC
Vind 9 kt fra Sør
Sikt 10 km eller mer
Få skyer i en høyde av 2000 ft
Brutte skyer i en høyde av 6000 ft

TAF: FPST 232200Z 2400/2506 19009KT 9999 FEW020 BKN060

Værobservasjoner og værvarsel for over 4000 flyplasser (METAR- og TAF-rapporter).

Tilgjengelige stasjoner er representert av de røde og gule prikkene på kartet.

Hold musepekeren over prikken for å se navnet på stasjonen.

Klikk så for å se værobservasjoner og -varsler.

For å forandre kartet kan du klikke på den grønne knappen med svart kryss for å zoome inn, på den grønne knappen med strek for å zoome ut, eller på de grønne pilene for å se tilstøtende kart.


METAR-TAF: